Kezdőlap
METAR-TAF:

METAR-TAF

Repülőterek :

Shawnee Regional Airport

Shawnee, Oklahoma, Amerikai Egyesült Államok

földrajzi szélesség: 35-21-26N, földrajzi hosszúság: 096-56-34W, magasság: 327 m

Jelenlegi meteorológiai megfigyelések

A jelentés 37 perccel ezelõtt készült, 02:15 UTC
Dél-délkeleti szél 9 kt
Hőmérséklet 28°C
Páratartalom 58%
Légköri nyomás 1018 hPa
Látótávolság: 16.1 km
Derült ég

METAR: KSNL 220215Z AUTO 16009KT 10SM CLR 28/19 A3005 RMK AO2 T02840189

Idő: 21:52 (02:52 UTC)


TAF: hiányzik

Meteorológiai megfigyelések és előrejelzések több, mint 4000 repülőtéren (METAR és TAF jelentéseket).

A térképen piros és sárga pontok jelzik az elérhető meteorológiai állomásokat.

Mozgassa az egeret a pont fölött, hogy megjelenjen az állomás neve.

Azután kattintson az időjárási megfigyelések és előrejelzések megtekintéséhez.

A térkép megváltoztatása: kattintson a fekete keresztel jelölt zöld gombra ráközelítéshez, a vonallal jelölt zöld gombra távolításhoz, vagy a zöld nyilakra a szomszédos térképek eléréséhez.


METAR-TAF: